createdAt,value
2023-01-01T00:05:01.907Z,3.50
2023-01-01T00:10:39.972Z,3.30
2023-01-01T00:16:25.051Z,4.30
2023-01-01T00:22:09.933Z,3.90
2023-01-01T00:27:57.999Z,4.60
2023-01-01T00:33:34.967Z,4.10
2023-01-01T00:39:12.278Z,4.40
2023-01-01T00:44:49.146Z,3.10
2023-01-01T00:50:26.035Z,3.40
2023-01-01T00:56:05.019Z,4.10
2023-01-01T01:01:42.118Z,3.20
2023-01-01T01:07:19.030Z,3.00
2023-01-01T01:12:57.032Z,3.60
2023-01-01T01:18:34.948Z,4.20
2023-01-01T01:24:14.951Z,4.00
2023-01-01T01:29:51.928Z,4.10
2023-01-01T01:35:29.059Z,4.00
2023-01-01T01:41:05.924Z,3.90
2023-01-01T01:46:53.939Z,3.80
2023-01-01T01:52:30.962Z,3.50
2023-01-01T01:58:08.053Z,3.50
2023-01-01T02:03:54.054Z,3.30
2023-01-01T02:09:31.122Z,3.20
2023-01-01T02:15:09.030Z,3.10
2023-01-01T02:21:00.002Z,4.10
2023-01-01T02:32:45.006Z,3.10
2023-01-01T02:38:31.111Z,4.10
2023-01-01T02:44:08.087Z,3.40
2023-01-01T02:49:45.075Z,3.30
2023-01-01T02:55:47.029Z,2.70
2023-01-01T03:01:34.256Z,2.90
2023-01-01T03:07:27.066Z,3.20
2023-01-01T03:13:13.993Z,4.20
2023-01-01T03:19:17.078Z,2.90
2023-01-01T03:25:12.077Z,2.90
2023-01-01T03:30:51.109Z,3.20
2023-01-01T03:36:37.995Z,3.70
2023-01-01T03:42:30.033Z,2.90
2023-01-01T03:48:07.015Z,3.00
2023-01-01T03:54:13.282Z,3.90
2023-01-01T04:00:05.108Z,3.80
2023-01-01T04:05:46.901Z,2.80
2023-01-01T04:11:52.006Z,3.50
2023-01-01T04:17:28.985Z,3.40
2023-01-01T04:23:05.975Z,3.80
2023-01-01T04:28:43.196Z,3.00
2023-01-01T04:34:20.060Z,3.10
2023-01-01T04:39:57.139Z,3.40
2023-01-01T04:45:34.061Z,3.10
2023-01-01T04:51:16.013Z,3.10
2023-01-01T04:56:52.997Z,3.40
2023-01-01T05:02:30.154Z,2.90
2023-01-01T05:08:06.967Z,2.60
2023-01-01T05:13:44.153Z,2.70
2023-01-01T05:24:58.028Z,3.00
2023-01-01T05:30:34.987Z,2.60
2023-01-01T05:36:11.982Z,2.30
2023-01-01T05:41:49.072Z,2.50
2023-01-01T05:47:29.704Z,2.60
2023-01-01T05:53:07.114Z,3.30
2023-01-01T05:58:46.015Z,3.10
2023-01-01T06:04:23.120Z,2.80
2023-01-01T06:10:00.045Z,2.40
2023-01-01T06:15:37.121Z,2.50
2023-01-01T06:21:22.995Z,2.40
2023-01-01T06:26:59.973Z,3.60
2023-01-01T06:32:37.000Z,3.10
2023-01-01T06:38:13.973Z,3.40
2023-01-01T06:43:52.284Z,2.50
2023-01-01T06:49:29.045Z,2.80
2023-01-01T06:55:06.032Z,2.50
2023-01-01T07:00:43.012Z,2.90
2023-01-01T07:06:21.131Z,2.60
2023-01-01T07:11:57.994Z,2.90
2023-01-01T07:17:35.109Z,2.50
2023-01-01T07:23:12.078Z,2.80
2023-01-01T07:28:49.057Z,3.20
2023-01-01T07:34:31.059Z,2.60
2023-01-01T07:40:08.134Z,2.10
2023-01-01T07:45:46.042Z,2.60
2023-01-01T07:51:23.035Z,2.30
2023-01-01T07:57:00.142Z,3.00
2023-01-01T08:02:37.168Z,2.40
2023-01-01T08:08:14.077Z,2.30
2023-01-01T08:13:51.075Z,2.90
2023-01-01T08:19:28.160Z,2.50
2023-01-01T08:25:05.050Z,3.20
2023-01-01T08:30:42.128Z,2.40
2023-01-01T08:36:19.005Z,2.90
2023-01-01T08:41:56.085Z,3.20
2023-01-01T08:47:36.043Z,2.50
2023-01-01T08:53:13.030Z,2.50
2023-01-01T08:58:52.009Z,3.20
2023-01-01T09:04:29.144Z,2.30
2023-01-01T09:10:06.146Z,2.20
2023-01-01T09:15:43.080Z,2.30
2023-01-01T09:21:20.083Z,2.80
2023-01-01T09:26:57.188Z,3.30
2023-01-01T09:32:34.086Z,2.20
2023-01-01T09:38:12.083Z,2.40
2023-01-01T09:44:20.197Z,2.00
2023-01-01T09:50:00.016Z,2.20
2023-01-01T09:56:00.162Z,2.80
2023-01-01T10:01:48.162Z,2.30
2023-01-01T10:07:39.161Z,2.30
2023-01-01T10:19:02.150Z,2.50
2023-01-01T10:24:58.164Z,2.40
2023-01-01T10:30:37.083Z,2.60
2023-01-01T10:36:15.194Z,2.10
2023-01-01T10:41:52.388Z,3.10
2023-01-01T10:47:42.161Z,2.30
2023-01-01T10:53:19.247Z,2.60
2023-01-01T10:59:03.112Z,2.40
2023-01-01T11:04:40.332Z,2.70
2023-01-01T11:10:20.247Z,2.50
2023-01-01T11:15:57.099Z,2.60
2023-01-01T11:21:36.131Z,1.90
2023-01-01T11:27:38.092Z,2.40
2023-01-01T11:33:18.156Z,4.50
2023-01-01T11:38:55.141Z,2.40
2023-01-01T11:44:54.568Z,4.50
2023-01-01T11:50:31.104Z,2.20
2023-01-01T11:56:29.073Z,2.40
2023-01-01T12:02:13.080Z,2.10
2023-01-01T12:07:53.258Z,2.50
2023-01-01T12:13:36.032Z,2.40
2023-01-01T12:19:23.229Z,1.90
2023-01-01T12:25:02.248Z,2.20
2023-01-01T12:30:43.193Z,2.50
2023-01-01T12:36:41.270Z,2.30
2023-01-01T12:42:34.167Z,2.70
2023-01-01T12:48:49.151Z,2.60
2023-01-01T12:54:45.143Z,3.30
2023-01-01T13:00:34.079Z,2.20
2023-01-01T13:06:12.073Z,2.40
2023-01-01T13:11:50.164Z,2.10
2023-01-01T13:17:44.320Z,2.60
2023-01-01T13:23:47.193Z,2.70
2023-01-01T13:29:27.147Z,2.70
2023-01-01T13:35:15.286Z,1.60
2023-01-01T13:41:05.078Z,2.40
2023-01-01T13:46:58.091Z,2.80
2023-01-01T13:53:05.182Z,2.50
2023-01-01T13:59:02.079Z,2.70
2023-01-01T14:05:01.222Z,2.30
2023-01-01T14:10:48.240Z,2.30
2023-01-01T14:16:27.174Z,2.90
2023-01-01T14:22:05.155Z,2.60
2023-01-01T14:27:44.148Z,2.10
2023-01-01T14:33:36.128Z,2.40
2023-01-01T14:39:14.122Z,1.90
2023-01-01T14:44:54.097Z,2.30
2023-01-01T14:50:43.247Z,2.40
2023-01-01T14:56:21.141Z,1.90
2023-01-01T15:01:59.380Z,2.70
2023-01-01T15:07:45.236Z,3.00
2023-01-01T15:13:22.118Z,2.80
2023-01-01T15:19:00.244Z,2.30
2023-01-01T15:24:40.396Z,2.40
2023-01-01T15:30:21.082Z,2.80
2023-01-01T15:42:04.192Z,3.30
2023-01-01T15:47:42.195Z,3.10
2023-01-01T15:53:36.167Z,2.70
2023-01-01T15:59:17.246Z,2.10
2023-01-01T16:04:58.121Z,1.80
2023-01-01T16:10:36.216Z,2.40
2023-01-01T16:16:15.281Z,2.50
2023-01-01T16:21:52.435Z,2.40
2023-01-01T16:27:29.247Z,2.80
2023-01-01T16:33:06.202Z,2.40
2023-01-01T16:38:44.110Z,2.40
2023-01-01T16:44:23.297Z,2.30
2023-01-01T16:50:00.265Z,2.60
2023-01-01T17:01:15.209Z,2.60
2023-01-01T17:06:53.353Z,2.90
2023-01-01T17:12:31.290Z,2.70
2023-01-01T17:18:08.827Z,3.00
2023-01-01T17:23:52.275Z,4.40
2023-01-01T17:29:29.356Z,4.70
2023-01-01T17:35:07.323Z,4.50
2023-01-01T17:40:44.738Z,7.20
2023-01-01T17:46:30.163Z,5.40
2023-01-01T17:52:08.239Z,6.30
2023-01-01T17:57:45.207Z,5.90
2023-01-01T18:03:33.369Z,7.10
2023-01-01T18:09:13.347Z,4.20
2023-01-01T18:14:51.190Z,6.50
2023-01-01T18:20:32.850Z,6.50
2023-01-01T18:26:14.276Z,4.70
2023-01-01T18:31:51.591Z,3.90
2023-01-01T18:37:30.185Z,7.60
2023-01-01T20:10:37.479Z,4.10
2023-01-01T20:16:21.939Z,8.50
2023-01-01T20:22:20.478Z,6.90
2023-01-01T20:28:16.920Z,5.40
2023-01-01T20:33:58.329Z,5.30
2023-01-01T20:39:37.397Z,9.60
2023-01-01T20:45:13.315Z,8.30
2023-01-01T20:50:27.845Z,10.40
2023-01-01T20:55:34.365Z,9.00
2023-01-01T21:00:40.626Z,8.80
2023-01-01T21:05:46.618Z,9.30
2023-01-01T21:10:53.656Z,9.00
2023-01-01T21:16:17.996Z,7.30
2023-01-01T21:21:36.996Z,9.20
2023-01-01T21:26:42.148Z,7.00
2023-01-01T21:31:50.656Z,6.30
2023-01-01T21:37:06.359Z,6.30
2023-01-01T21:42:24.271Z,9.40
2023-01-01T21:47:28.959Z,12.80
2023-01-01T21:52:34.562Z,13.10
2023-01-01T21:57:39.318Z,13.80
2023-01-01T22:02:47.197Z,11.90
2023-01-01T22:07:58.943Z,12.70
2023-01-01T22:18:24.586Z,10.10
2023-01-01T22:23:41.447Z,10.90
2023-01-01T22:28:47.863Z,7.30
2023-01-01T22:33:57.464Z,9.00
2023-01-01T22:39:03.745Z,11.30
2023-01-01T22:44:08.112Z,7.40
2023-01-01T22:49:38.839Z,8.40
2023-01-01T22:54:43.006Z,9.00
2023-01-01T22:59:47.742Z,9.40
2023-01-01T23:04:51.988Z,6.30
2023-01-01T23:09:58.017Z,7.50
2023-01-01T23:15:41.012Z,8.60
2023-01-01T23:20:45.223Z,8.40
2023-01-01T23:25:49.732Z,6.40
2023-01-01T23:30:54.561Z,7.00
2023-01-01T23:35:59.247Z,5.00
2023-01-01T23:41:03.280Z,6.80
2023-01-01T23:46:07.532Z,6.10
2023-01-01T23:51:12.696Z,14.60
2023-01-01T23:56:17.028Z,4.90
